sensor_id;sensor_type;location;lat;lon;timestamp;P1;durP1;ratioP1;P2;durP2;ratioP2
46589;SDS011;32313;48.722;9.362;2023-06-14T00:02:08;7.60;;;6.90;;
46589;SDS011;32313;48.722;9.362;2023-06-14T00:04:34;8.00;;;7.20;;
46589;SDS011;32313;48.722;9.362;2023-06-14T00:07:00;6.97;;;6.40;;
46589;SDS011;32313;48.722;9.362;2023-06-14T00:09:26;8.37;;;6.60;;
46589;SDS011;32313;48.722;9.362;2023-06-14T00:11:52;7.37;;;6.67;;
46589;SDS011;32313;48.722;9.362;2023-06-14T00:14:23;7.40;;;6.70;;
46589;SDS011;32313;48.722;9.362;2023-06-14T00:16:49;8.30;;;7.03;;
46589;SDS011;32313;48.722;9.362;2023-06-14T00:19:14;6.77;;;6.17;;
46589;SDS011;32313;48.722;9.362;2023-06-14T00:21:41;7.40;;;6.70;;
46589;SDS011;32313;48.722;9.362;2023-06-14T00:24:08;7.23;;;6.63;;
46589;SDS011;32313;48.722;9.362;2023-06-14T00:26:34;7.47;;;6.73;;
46589;SDS011;32313;48.722;9.362;2023-06-14T00:29:00;7.07;;;6.47;;
46589;SDS011;32313;48.722;9.362;2023-06-14T00:31:25;7.93;;;7.13;;
46589;SDS011;32313;48.722;9.362;2023-06-14T00:33:53;7.93;;;7.13;;
46589;SDS011;32313;48.722;9.362;2023-06-14T00:36:19;7.07;;;6.47;;
46589;SDS011;32313;48.722;9.362;2023-06-14T00:38:44;7.33;;;6.73;;
46589;SDS011;32313;48.722;9.362;2023-06-14T00:41:10;8.37;;;7.67;;
46589;SDS011;32313;48.722;9.362;2023-06-14T00:43:36;8.20;;;7.47;;
46589;SDS011;32313;48.722;9.362;2023-06-14T00:46:02;7.80;;;7.03;;
46589;SDS011;32313;48.722;9.362;2023-06-14T00:48:29;7.43;;;6.83;;
46589;SDS011;32313;48.722;9.362;2023-06-14T00:50:56;8.47;;;7.37;;
46589;SDS011;32313;48.722;9.362;2023-06-14T00:53:27;7.90;;;7.20;;
46589;SDS011;32313;48.722;9.362;2023-06-14T00:55:54;8.77;;;7.53;;
46589;SDS011;32313;48.722;9.362;2023-06-14T00:58:21;9.33;;;7.50;;
46589;SDS011;32313;48.722;9.362;2023-06-14T01:00:47;8.37;;;7.00;;
46589;SDS011;32313;48.722;9.362;2023-06-14T01:03:13;8.07;;;7.27;;
46589;SDS011;32313;48.722;9.362;2023-06-14T01:05:47;8.73;;;8.03;;
46589;SDS011;32313;48.722;9.362;2023-06-14T01:11:27;8.80;;;7.40;;
46589;SDS011;32313;48.722;9.362;2023-06-14T01:13:57;8.33;;;7.63;;
46589;SDS011;32313;48.722;9.362;2023-06-14T01:16:27;8.17;;;7.47;;
46589;SDS011;32313;48.722;9.362;2023-06-14T01:18:54;7.57;;;6.97;;
46589;SDS011;32313;48.722;9.362;2023-06-14T01:21:22;9.40;;;7.97;;
46589;SDS011;32313;48.722;9.362;2023-06-14T01:23:49;8.33;;;7.67;;
46589;SDS011;32313;48.722;9.362;2023-06-14T01:26:19;8.37;;;7.57;;
46589;SDS011;32313;48.722;9.362;2023-06-14T01:28:48;8.60;;;7.90;;
46589;SDS011;32313;48.722;9.362;2023-06-14T01:31:19;8.47;;;7.70;;
46589;SDS011;32313;48.722;9.362;2023-06-14T01:33:52;8.23;;;7.43;;
46589;SDS011;32313;48.722;9.362;2023-06-14T01:36:19;9.63;;;7.77;;
46589;SDS011;32313;48.722;9.362;2023-06-14T01:38:45;8.37;;;7.67;;
46589;SDS011;32313;48.722;9.362;2023-06-14T01:41:15;8.40;;;7.50;;
46589;SDS011;32313;48.722;9.362;2023-06-14T01:43:43;9.37;;;8.57;;
46589;SDS011;32313;48.722;9.362;2023-06-14T01:46:10;8.20;;;7.43;;
46589;SDS011;32313;48.722;9.362;2023-06-14T01:48:38;8.63;;;7.73;;
46589;SDS011;32313;48.722;9.362;2023-06-14T01:51:04;8.27;;;7.67;;
46589;SDS011;32313;48.722;9.362;2023-06-14T01:53:30;9.13;;;8.40;;
46589;SDS011;32313;48.722;9.362;2023-06-14T01:55:55;8.83;;;8.23;;
46589;SDS011;32313;48.722;9.362;2023-06-14T01:58:22;10.30;;;7.50;;
46589;SDS011;32313;48.722;9.362;2023-06-14T02:00:49;8.47;;;7.70;;
46589;SDS011;32313;48.722;9.362;2023-06-14T02:03:16;8.10;;;7.50;;
46589;SDS011;32313;48.722;9.362;2023-06-14T02:05:42;11.00;;;8.00;;
46589;SDS011;32313;48.722;9.362;2023-06-14T02:08:08;9.03;;;8.07;;
46589;SDS011;32313;48.722;9.362;2023-06-14T02:10:34;8.33;;;7.63;;
46589;SDS011;32313;48.722;9.362;2023-06-14T02:13:00;8.93;;;8.13;;
46589;SDS011;32313;48.722;9.362;2023-06-14T02:15:25;10.27;;;8.17;;
46589;SDS011;32313;48.722;9.362;2023-06-14T02:18:02;9.43;;;8.63;;
46589;SDS011;32313;48.722;9.362;2023-06-14T02:20:31;9.97;;;9.07;;
46589;SDS011;32313;48.722;9.362;2023-06-14T02:22:57;8.70;;;7.90;;
46589;SDS011;32313;48.722;9.362;2023-06-14T02:25:23;8.97;;;8.07;;
46589;SDS011;32313;48.722;9.362;2023-06-14T02:27:49;10.07;;;9.17;;
46589;SDS011;32313;48.722;9.362;2023-06-14T02:30:15;9.63;;;8.83;;
46589;SDS011;32313;48.722;9.362;2023-06-14T02:32:41;9.70;;;8.80;;
46589;SDS011;32313;48.722;9.362;2023-06-14T02:35:07;9.83;;;8.83;;
46589;SDS011;32313;48.722;9.362;2023-06-14T02:37:34;10.10;;;9.13;;
46589;SDS011;32313;48.722;9.362;2023-06-14T02:40:00;9.00;;;8.27;;
46589;SDS011;32313;48.722;9.362;2023-06-14T02:42:26;9.83;;;9.03;;
46589;SDS011;32313;48.722;9.362;2023-06-14T02:44:52;9.63;;;8.83;;
46589;SDS011;32313;48.722;9.362;2023-06-14T02:47:18;9.30;;;8.60;;
46589;SDS011;32313;48.722;9.362;2023-06-14T02:49:44;10.17;;;8.37;;
46589;SDS011;32313;48.722;9.362;2023-06-14T02:52:13;10.00;;;9.10;;
46589;SDS011;32313;48.722;9.362;2023-06-14T02:54:39;11.73;;;9.07;;
46589;SDS011;32313;48.722;9.362;2023-06-14T02:57:06;13.53;;;9.33;;
46589;SDS011;32313;48.722;9.362;2023-06-14T02:59:36;10.43;;;9.40;;
46589;SDS011;32313;48.722;9.362;2023-06-14T03:02:03;12.90;;;9.43;;
46589;SDS011;32313;48.722;9.362;2023-06-14T03:04:30;10.87;;;9.00;;
46589;SDS011;32313;48.722;9.362;2023-06-14T03:07:02;10.87;;;9.50;;
46589;SDS011;32313;48.722;9.362;2023-06-14T03:09:35;11.63;;;10.37;;
46589;SDS011;32313;48.722;9.362;2023-06-14T03:12:03;12.83;;;10.03;;
46589;SDS011;32313;48.722;9.362;2023-06-14T03:14:30;10.97;;;9.73;;
46589;SDS011;32313;48.722;9.362;2023-06-14T03:16:57;11.20;;;9.43;;
46589;SDS011;32313;48.722;9.362;2023-06-14T03:19:24;11.23;;;9.83;;
46589;SDS011;32313;48.722;9.362;2023-06-14T03:21:53;12.60;;;10.00;;
46589;SDS011;32313;48.722;9.362;2023-06-14T03:24:26;11.70;;;9.87;;
46589;SDS011;32313;48.722;9.362;2023-06-14T03:26:56;10.87;;;9.67;;
46589;SDS011;32313;48.722;9.362;2023-06-14T03:29:23;11.57;;;10.37;;
46589;SDS011;32313;48.722;9.362;2023-06-14T03:32:00;10.07;;;8.97;;
46589;SDS011;32313;48.722;9.362;2023-06-14T03:34:34;12.93;;;9.60;;
46589;SDS011;32313;48.722;9.362;2023-06-14T03:37:02;11.13;;;9.90;;
46589;SDS011;32313;48.722;9.362;2023-06-14T03:39:28;12.17;;;9.50;;
46589;SDS011;32313;48.722;9.362;2023-06-14T03:41:55;10.60;;;9.80;;
46589;SDS011;32313;48.722;9.362;2023-06-14T03:44:21;10.93;;;9.10;;
46589;SDS011;32313;48.722;9.362;2023-06-14T03:46:47;11.47;;;10.03;;
46589;SDS011;32313;48.722;9.362;2023-06-14T03:49:13;11.13;;;9.40;;
46589;SDS011;32313;48.722;9.362;2023-06-14T03:51:39;10.57;;;9.60;;
46589;SDS011;32313;48.722;9.362;2023-06-14T03:54:05;12.10;;;10.07;;
46589;SDS011;32313;48.722;9.362;2023-06-14T03:56:32;11.40;;;10.20;;
46589;SDS011;32313;48.722;9.362;2023-06-14T03:58:58;11.47;;;10.47;;
46589;SDS011;32313;48.722;9.362;2023-06-14T04:01:26;10.43;;;9.40;;
46589;SDS011;32313;48.722;9.362;2023-06-14T04:03:57;9.53;;;8.67;;
46589;SDS011;32313;48.722;9.362;2023-06-14T04:06:24;10.27;;;9.27;;
46589;SDS011;32313;48.722;9.362;2023-06-14T04:08:56;9.90;;;9.03;;
46589;SDS011;32313;48.722;9.362;2023-06-14T04:11:27;9.83;;;9.03;;
46589;SDS011;32313;48.722;9.362;2023-06-14T04:13:53;15.50;;;10.47;;
46589;SDS011;32313;48.722;9.362;2023-06-14T04:16:21;10.10;;;9.20;;
46589;SDS011;32313;48.722;9.362;2023-06-14T04:18:47;10.03;;;9.13;;
46589;SDS011;32313;48.722;9.362;2023-06-14T04:21:16;11.30;;;10.00;;
46589;SDS011;32313;48.722;9.362;2023-06-14T04:23:42;13.27;;;8.97;;
46589;SDS011;32313;48.722;9.362;2023-06-14T04:26:09;11.83;;;10.37;;
46589;SDS011;32313;48.722;9.362;2023-06-14T04:28:35;12.77;;;9.83;;
46589;SDS011;32313;48.722;9.362;2023-06-14T04:31:06;14.33;;;9.23;;
46589;SDS011;32313;48.722;9.362;2023-06-14T04:33:36;13.10;;;9.63;;
46589;SDS011;32313;48.722;9.362;2023-06-14T04:36:11;14.00;;;10.33;;
46589;SDS011;32313;48.722;9.362;2023-06-14T04:38:39;14.13;;;10.20;;
46589;SDS011;32313;48.722;9.362;2023-06-14T04:41:06;13.80;;;10.03;;
46589;SDS011;32313;48.722;9.362;2023-06-14T04:43:37;29.80;;;11.53;;
46589;SDS011;32313;48.722;9.362;2023-06-14T04:46:05;57.27;;;12.93;;
46589;SDS011;32313;48.722;9.362;2023-06-14T04:48:34;45.77;;;12.20;;
46589;SDS011;32313;48.722;9.362;2023-06-14T04:51:00;28.97;;;10.63;;
46589;SDS011;32313;48.722;9.362;2023-06-14T04:53:26;25.07;;;10.80;;
46589;SDS011;32313;48.722;9.362;2023-06-14T04:55:55;16.30;;;9.33;;
46589;SDS011;32313;48.722;9.362;2023-06-14T04:58:21;12.53;;;9.07;;
46589;SDS011;32313;48.722;9.362;2023-06-14T05:00:47;13.77;;;9.70;;
46589;SDS011;32313;48.722;9.362;2023-06-14T05:03:13;21.67;;;10.50;;
46589;SDS011;32313;48.722;9.362;2023-06-14T05:05:40;14.53;;;9.93;;
46589;SDS011;32313;48.722;9.362;2023-06-14T05:08:07;11.93;;;9.17;;
46589;SDS011;32313;48.722;9.362;2023-06-14T05:10:33;12.80;;;9.10;;
46589;SDS011;32313;48.722;9.362;2023-06-14T05:13:01;12.27;;;8.93;;
46589;SDS011;32313;48.722;9.362;2023-06-14T05:15:28;10.57;;;9.07;;
46589;SDS011;32313;48.722;9.362;2023-06-14T05:17:54;8.80;;;8.00;;
46589;SDS011;32313;48.722;9.362;2023-06-14T05:20:24;10.90;;;8.53;;
46589;SDS011;32313;48.722;9.362;2023-06-14T05:22:54;11.93;;;8.60;;
46589;SDS011;32313;48.722;9.362;2023-06-14T05:25:22;15.17;;;8.83;;
46589;SDS011;32313;48.722;9.362;2023-06-14T05:27:48;13.53;;;8.67;;
46589;SDS011;32313;48.722;9.362;2023-06-14T05:30:14;11.40;;;8.80;;
46589;SDS011;32313;48.722;9.362;2023-06-14T05:32:40;13.07;;;9.60;;
46589;SDS011;32313;48.722;9.362;2023-06-14T05:35:07;10.77;;;8.70;;
46589;SDS011;32313;48.722;9.362;2023-06-14T05:37:33;8.73;;;7.83;;
46589;SDS011;32313;48.722;9.362;2023-06-14T05:39:59;10.80;;;9.47;;
46589;SDS011;32313;48.722;9.362;2023-06-14T05:42:24;10.87;;;8.87;;
46589;SDS011;32313;48.722;9.362;2023-06-14T05:44:50;10.17;;;8.57;;
46589;SDS011;32313;48.722;9.362;2023-06-14T05:47:16;10.17;;;8.33;;
46589;SDS011;32313;48.722;9.362;2023-06-14T05:49:42;9.93;;;8.93;;
46589;SDS011;32313;48.722;9.362;2023-06-14T05:52:08;11.30;;;8.70;;
46589;SDS011;32313;48.722;9.362;2023-06-14T05:54:33;8.50;;;7.50;;
46589;SDS011;32313;48.722;9.362;2023-06-14T05:56:59;9.90;;;8.70;;
46589;SDS011;32313;48.722;9.362;2023-06-14T05:59:26;8.90;;;8.00;;
46589;SDS011;32313;48.722;9.362;2023-06-14T06:01:53;11.47;;;8.37;;
46589;SDS011;32313;48.722;9.362;2023-06-14T06:04:19;11.30;;;9.07;;
46589;SDS011;32313;48.722;9.362;2023-06-14T06:06:45;12.53;;;8.70;;
46589;SDS011;32313;48.722;9.362;2023-06-14T06:09:11;11.73;;;9.20;;
46589;SDS011;32313;48.722;9.362;2023-06-14T06:11:39;8.57;;;7.67;;
46589;SDS011;32313;48.722;9.362;2023-06-14T06:14:05;11.13;;;8.60;;
46589;SDS011;32313;48.722;9.362;2023-06-14T06:16:31;12.30;;;8.53;;
46589;SDS011;32313;48.722;9.362;2023-06-14T06:18:58;9.43;;;7.80;;
46589;SDS011;32313;48.722;9.362;2023-06-14T06:21:24;11.00;;;8.37;;
46589;SDS011;32313;48.722;9.362;2023-06-14T06:23:50;9.53;;;7.87;;
46589;SDS011;32313;48.722;9.362;2023-06-14T06:26:16;8.47;;;7.67;;
46589;SDS011;32313;48.722;9.362;2023-06-14T06:28:41;9.73;;;7.90;;
46589;SDS011;32313;48.722;9.362;2023-06-14T06:31:07;12.77;;;8.10;;
46589;SDS011;32313;48.722;9.362;2023-06-14T06:33:33;9.70;;;7.50;;
46589;SDS011;32313;48.722;9.362;2023-06-14T06:35:59;7.93;;;6.63;;
46589;SDS011;32313;48.722;9.362;2023-06-14T06:38:24;10.43;;;7.10;;
46589;SDS011;32313;48.722;9.362;2023-06-14T06:40:50;6.77;;;6.10;;
46589;SDS011;32313;48.722;9.362;2023-06-14T06:43:16;7.33;;;5.93;;
46589;SDS011;32313;48.722;9.362;2023-06-14T06:45:46;8.60;;;6.10;;
46589;SDS011;32313;48.722;9.362;2023-06-14T06:48:11;7.00;;;5.80;;
46589;SDS011;32313;48.722;9.362;2023-06-14T06:50:37;10.40;;;5.77;;
46589;SDS011;32313;48.722;9.362;2023-06-14T06:53:03;6.27;;;5.00;;
46589;SDS011;32313;48.722;9.362;2023-06-14T06:55:30;9.63;;;5.87;;
46589;SDS011;32313;48.722;9.362;2023-06-14T06:57:56;9.80;;;5.90;;
46589;SDS011;32313;48.722;9.362;2023-06-14T07:00:22;7.20;;;5.37;;
46589;SDS011;32313;48.722;9.362;2023-06-14T07:02:48;9.37;;;5.63;;
46589;SDS011;32313;48.722;9.362;2023-06-14T07:05:13;7.23;;;4.90;;
46589;SDS011;32313;48.722;9.362;2023-06-14T07:07:39;8.53;;;5.40;;
46589;SDS011;32313;48.722;9.362;2023-06-14T07:10:05;7.00;;;4.90;;
46589;SDS011;32313;48.722;9.362;2023-06-14T07:12:32;8.50;;;5.33;;
46589;SDS011;32313;48.722;9.362;2023-06-14T07:15:01;6.30;;;4.20;;
46589;SDS011;32313;48.722;9.362;2023-06-14T07:17:28;8.23;;;5.00;;
46589;SDS011;32313;48.722;9.362;2023-06-14T07:19:54;6.97;;;4.63;;
46589;SDS011;32313;48.722;9.362;2023-06-14T07:22:20;7.78;;;4.95;;
46589;SDS011;32313;48.722;9.362;2023-06-14T07:24:45;7.15;;;4.75;;
46589;SDS011;32313;48.722;9.362;2023-06-14T07:27:11;5.50;;;4.28;;
46589;SDS011;32313;48.722;9.362;2023-06-14T07:29:38;7.95;;;5.22;;
46589;SDS011;32313;48.722;9.362;2023-06-14T07:32:04;7.10;;;4.80;;
46589;SDS011;32313;48.722;9.362;2023-06-14T07:34:30;7.70;;;4.40;;
46589;SDS011;32313;48.722;9.362;2023-06-14T07:36:56;11.52;;;4.85;;
46589;SDS011;32313;48.722;9.362;2023-06-14T07:39:22;6.25;;;4.35;;
46589;SDS011;32313;48.722;9.362;2023-06-14T07:41:48;6.07;;;4.53;;
46589;SDS011;32313;48.722;9.362;2023-06-14T07:44:14;6.13;;;4.38;;
46589;SDS011;32313;48.722;9.362;2023-06-14T07:46:41;6.55;;;4.53;;
46589;SDS011;32313;48.722;9.362;2023-06-14T07:49:07;7.25;;;4.45;;
46589;SDS011;32313;48.722;9.362;2023-06-14T07:51:32;5.05;;;3.60;;
46589;SDS011;32313;48.722;9.362;2023-06-14T07:54:03;4.28;;;3.88;;
46589;SDS011;32313;48.722;9.362;2023-06-14T07:56:29;6.20;;;3.88;;
46589;SDS011;32313;48.722;9.362;2023-06-14T07:58:55;4.50;;;3.67;;
46589;SDS011;32313;48.722;9.362;2023-06-14T08:01:20;4.57;;;3.40;;
46589;SDS011;32313;48.722;9.362;2023-06-14T08:03:49;5.07;;;3.80;;
46589;SDS011;32313;48.722;9.362;2023-06-14T08:06:15;3.90;;;3.60;;
46589;SDS011;32313;48.722;9.362;2023-06-14T08:08:40;6.50;;;3.92;;
46589;SDS011;32313;48.722;9.362;2023-06-14T08:11:06;3.78;;;3.47;;
46589;SDS011;32313;48.722;9.362;2023-06-14T08:13:32;6.28;;;3.70;;
46589;SDS011;32313;48.722;9.362;2023-06-14T08:15:58;5.90;;;3.88;;
46589;SDS011;32313;48.722;9.362;2023-06-14T08:18:25;5.00;;;3.60;;
46589;SDS011;32313;48.722;9.362;2023-06-14T08:20:51;4.95;;;3.83;;
46589;SDS011;32313;48.722;9.362;2023-06-14T08:23:17;4.68;;;3.83;;
46589;SDS011;32313;48.722;9.362;2023-06-14T08:25:46;4.13;;;3.63;;
46589;SDS011;32313;48.722;9.362;2023-06-14T08:28:11;4.55;;;3.40;;
46589;SDS011;32313;48.722;9.362;2023-06-14T08:30:37;5.20;;;3.40;;
46589;SDS011;32313;48.722;9.362;2023-06-14T08:33:03;5.63;;;3.38;;
46589;SDS011;32313;48.722;9.362;2023-06-14T08:35:29;3.97;;;3.40;;
46589;SDS011;32313;48.722;9.362;2023-06-14T08:37:54;3.70;;;3.35;;
46589;SDS011;32313;48.722;9.362;2023-06-14T08:40:22;5.82;;;3.80;;
46589;SDS011;32313;48.722;9.362;2023-06-14T08:42:52;8.15;;;3.40;;
46589;SDS011;32313;48.722;9.362;2023-06-14T08:45:19;4.97;;;3.55;;
46589;SDS011;32313;48.722;9.362;2023-06-14T08:47:47;5.45;;;4.00;;
46589;SDS011;32313;48.722;9.362;2023-06-14T08:50:23;5.22;;;3.55;;
46589;SDS011;32313;48.722;9.362;2023-06-14T08:52:57;4.97;;;3.65;;
46589;SDS011;32313;48.722;9.362;2023-06-14T08:55:28;4.72;;;3.55;;
46589;SDS011;32313;48.722;9.362;2023-06-14T08:57:55;4.10;;;3.70;;
46589;SDS011;32313;48.722;9.362;2023-06-14T09:00:25;4.00;;;3.53;;
46589;SDS011;32313;48.722;9.362;2023-06-14T09:02:52;6.22;;;3.88;;
46589;SDS011;32313;48.722;9.362;2023-06-14T09:05:25;5.43;;;3.55;;
46589;SDS011;32313;48.722;9.362;2023-06-14T09:07:52;5.97;;;3.90;;
46589;SDS011;32313;48.722;9.362;2023-06-14T09:10:21;3.70;;;3.35;;
46589;SDS011;32313;48.722;9.362;2023-06-14T09:12:48;5.55;;;3.63;;
46589;SDS011;32313;48.722;9.362;2023-06-14T09:15:14;4.32;;;3.50;;
46589;SDS011;32313;48.722;9.362;2023-06-14T09:17:40;4.97;;;3.50;;
46589;SDS011;32313;48.722;9.362;2023-06-14T09:20:07;3.92;;;3.45;;
46589;SDS011;32313;48.722;9.362;2023-06-14T09:22:42;4.55;;;3.40;;
46589;SDS011;32313;48.722;9.362;2023-06-14T09:25:08;3.85;;;3.45;;
46589;SDS011;32313;48.722;9.362;2023-06-14T09:27:34;4.40;;;3.50;;
46589;SDS011;32313;48.722;9.362;2023-06-14T09:30:02;4.65;;;3.97;;
46589;SDS011;32313;48.722;9.362;2023-06-14T09:32:28;3.45;;;3.15;;
46589;SDS011;32313;48.722;9.362;2023-06-14T09:34:55;3.58;;;3.28;;
46589;SDS011;32313;48.722;9.362;2023-06-14T09:37:28;6.22;;;3.55;;
46589;SDS011;32313;48.722;9.362;2023-06-14T09:39:55;5.40;;;3.17;;
46589;SDS011;32313;48.722;9.362;2023-06-14T09:42:21;4.82;;;3.25;;
46589;SDS011;32313;48.722;9.362;2023-06-14T09:44:51;5.18;;;3.58;;
46589;SDS011;32313;48.722;9.362;2023-06-14T09:47:19;3.72;;;3.30;;
46589;SDS011;32313;48.722;9.362;2023-06-14T09:49:45;4.38;;;3.40;;
46589;SDS011;32313;48.722;9.362;2023-06-14T09:52:16;4.45;;;3.38;;
46589;SDS011;32313;48.722;9.362;2023-06-14T09:54:44;5.10;;;3.28;;
46589;SDS011;32313;48.722;9.362;2023-06-14T09:57:12;5.93;;;3.90;;
46589;SDS011;32313;48.722;9.362;2023-06-14T09:59:43;4.85;;;3.80;;
46589;SDS011;32313;48.722;9.362;2023-06-14T10:02:35;4.93;;;3.60;;
46589;SDS011;32313;48.722;9.362;2023-06-14T10:05:09;4.60;;;3.67;;
46589;SDS011;32313;48.722;9.362;2023-06-14T10:08:13;4.55;;;3.75;;
46589;SDS011;32313;48.722;9.362;2023-06-14T10:10:33;5.00;;;3.40;;
46589;SDS011;32313;48.722;9.362;2023-06-14T10:12:59;7.93;;;3.97;;
46589;SDS011;32313;48.722;9.362;2023-06-14T10:15:28;4.13;;;3.42;;
46589;SDS011;32313;48.722;9.362;2023-06-14T10:18:01;3.67;;;3.35;;
46589;SDS011;32313;48.722;9.362;2023-06-14T10:20:42;5.47;;;3.33;;
46589;SDS011;32313;48.722;9.362;2023-06-14T10:23:17;3.42;;;3.13;;
46589;SDS011;32313;48.722;9.362;2023-06-14T10:25:49;4.70;;;3.33;;
46589;SDS011;32313;48.722;9.362;2023-06-14T10:28:19;3.40;;;3.10;;
46589;SDS011;32313;48.722;9.362;2023-06-14T10:31:06;3.65;;;3.15;;
46589;SDS011;32313;48.722;9.362;2023-06-14T10:33:37;6.22;;;3.40;;
46589;SDS011;32313;48.722;9.362;2023-06-14T10:39:00;4.03;;;3.40;;
46589;SDS011;32313;48.722;9.362;2023-06-14T10:41:31;5.30;;;2.95;;
46589;SDS011;32313;48.722;9.362;2023-06-14T10:46:38;3.65;;;3.20;;
46589;SDS011;32313;48.722;9.362;2023-06-14T10:49:05;3.40;;;3.10;;
46589;SDS011;32313;48.722;9.362;2023-06-14T10:51:41;4.25;;;3.33;;
46589;SDS011;32313;48.722;9.362;2023-06-14T10:54:11;4.63;;;3.10;;
46589;SDS011;32313;48.722;9.362;2023-06-14T10:56:48;4.20;;;2.97;;
46589;SDS011;32313;48.722;9.362;2023-06-14T10:59:15;3.95;;;3.25;;
46589;SDS011;32313;48.722;9.362;2023-06-14T11:01:45;4.80;;;2.95;;
46589;SDS011;32313;48.722;9.362;2023-06-14T11:04:15;4.28;;;3.20;;
46589;SDS011;32313;48.722;9.362;2023-06-14T11:11:57;5.18;;;3.30;;
46589;SDS011;32313;48.722;9.362;2023-06-14T11:14:24;5.38;;;2.90;;
46589;SDS011;32313;48.722;9.362;2023-06-14T11:16:50;3.45;;;3.10;;
46589;SDS011;32313;48.722;9.362;2023-06-14T11:19:16;6.32;;;3.17;;
46589;SDS011;32313;48.722;9.362;2023-06-14T11:21:47;5.38;;;3.28;;
46589;SDS011;32313;48.722;9.362;2023-06-14T11:24:13;5.70;;;3.08;;
46589;SDS011;32313;48.722;9.362;2023-06-14T11:26:39;3.97;;;2.92;;
46589;SDS011;32313;48.722;9.362;2023-06-14T11:29:06;3.17;;;2.83;;
46589;SDS011;32313;48.722;9.362;2023-06-14T11:31:32;3.72;;;3.20;;
46589;SDS011;32313;48.722;9.362;2023-06-14T11:33:58;3.78;;;3.38;;
46589;SDS011;32313;48.722;9.362;2023-06-14T11:36:28;4.03;;;3.03;;
46589;SDS011;32313;48.722;9.362;2023-06-14T11:38:58;4.10;;;2.90;;
46589;SDS011;32313;48.722;9.362;2023-06-14T11:41:38;5.05;;;3.42;;
46589;SDS011;32313;48.722;9.362;2023-06-14T11:44:06;2.88;;;2.67;;
46589;SDS011;32313;48.722;9.362;2023-06-14T11:46:32;4.60;;;3.00;;
46589;SDS011;32313;48.722;9.362;2023-06-14T11:48:59;4.53;;;3.00;;
46589;SDS011;32313;48.722;9.362;2023-06-14T11:51:28;5.63;;;3.28;;
46589;SDS011;32313;48.722;9.362;2023-06-14T11:53:54;4.63;;;3.40;;
46589;SDS011;32313;48.722;9.362;2023-06-14T11:56:20;4.22;;;3.10;;
46589;SDS011;32313;48.722;9.362;2023-06-14T11:58:46;3.10;;;2.90;;
46589;SDS011;32313;48.722;9.362;2023-06-14T12:01:18;3.40;;;3.10;;
46589;SDS011;32313;48.722;9.362;2023-06-14T12:03:48;5.05;;;3.17;;
46589;SDS011;32313;48.722;9.362;2023-06-14T12:06:15;5.53;;;2.83;;
46589;SDS011;32313;48.722;9.362;2023-06-14T12:08:42;8.35;;;3.05;;
46589;SDS011;32313;48.722;9.362;2023-06-14T12:11:11;3.60;;;3.30;;
46589;SDS011;32313;48.722;9.362;2023-06-14T12:13:39;5.88;;;3.28;;
46589;SDS011;32313;48.722;9.362;2023-06-14T12:16:09;3.58;;;3.25;;
46589;SDS011;32313;48.722;9.362;2023-06-14T12:18:36;5.57;;;3.47;;
46589;SDS011;32313;48.722;9.362;2023-06-14T12:21:08;4.65;;;3.35;;
46589;SDS011;32313;48.722;9.362;2023-06-14T12:23:38;4.88;;;3.20;;
46589;SDS011;32313;48.722;9.362;2023-06-14T12:26:17;3.60;;;3.30;;
46589;SDS011;32313;48.722;9.362;2023-06-14T12:28:45;3.53;;;3.10;;
46589;SDS011;32313;48.722;9.362;2023-06-14T12:31:12;6.90;;;3.55;;
46589;SDS011;32313;48.722;9.362;2023-06-14T12:33:42;3.55;;;3.00;;
46589;SDS011;32313;48.722;9.362;2023-06-14T12:36:08;4.18;;;3.15;;
46589;SDS011;32313;48.722;9.362;2023-06-14T12:38:35;4.10;;;3.35;;
46589;SDS011;32313;48.722;9.362;2023-06-14T12:41:02;3.53;;;3.20;;
46589;SDS011;32313;48.722;9.362;2023-06-14T12:43:28;4.22;;;3.05;;
46589;SDS011;32313;48.722;9.362;2023-06-14T12:45:54;6.70;;;3.80;;
46589;SDS011;32313;48.722;9.362;2023-06-14T12:48:20;4.47;;;3.22;;
46589;SDS011;32313;48.722;9.362;2023-06-14T12:50:46;6.80;;;3.22;;
46589;SDS011;32313;48.722;9.362;2023-06-14T12:53:12;4.68;;;3.38;;
46589;SDS011;32313;48.722;9.362;2023-06-14T12:55:38;4.00;;;3.13;;
46589;SDS011;32313;48.722;9.362;2023-06-14T12:58:04;3.53;;;3.20;;
46589;SDS011;32313;48.722;9.362;2023-06-14T13:00:30;6.30;;;3.35;;
46589;SDS011;32313;48.722;9.362;2023-06-14T13:02:57;3.28;;;2.97;;
46589;SDS011;32313;48.722;9.362;2023-06-14T13:05:23;4.22;;;3.47;;
46589;SDS011;32313;48.722;9.362;2023-06-14T13:07:49;4.95;;;3.20;;
46589;SDS011;32313;48.722;9.362;2023-06-14T13:10:16;3.33;;;3.03;;
46589;SDS011;32313;48.722;9.362;2023-06-14T13:12:42;3.85;;;3.47;;
46589;SDS011;32313;48.722;9.362;2023-06-14T13:15:08;6.03;;;3.65;;
46589;SDS011;32313;48.722;9.362;2023-06-14T13:17:34;4.18;;;2.97;;
46589;SDS011;32313;48.722;9.362;2023-06-14T13:20:04;4.18;;;3.78;;
46589;SDS011;32313;48.722;9.362;2023-06-14T13:22:34;3.83;;;3.53;;
46589;SDS011;32313;48.722;9.362;2023-06-14T13:25:00;3.83;;;3.13;;
46589;SDS011;32313;48.722;9.362;2023-06-14T13:27:26;4.25;;;3.50;;
46589;SDS011;32313;48.722;9.362;2023-06-14T13:29:53;4.85;;;3.25;;
46589;SDS011;32313;48.722;9.362;2023-06-14T13:32:21;3.80;;;3.30;;
46589;SDS011;32313;48.722;9.362;2023-06-14T13:34:47;4.15;;;3.20;;
46589;SDS011;32313;48.722;9.362;2023-06-14T13:40:30;6.70;;;2.97;;
46589;SDS011;32313;48.722;9.362;2023-06-14T13:42:55;4.28;;;3.35;;
46589;SDS011;32313;48.722;9.362;2023-06-14T13:45:21;3.58;;;3.28;;
46589;SDS011;32313;48.722;9.362;2023-06-14T13:47:47;4.70;;;3.15;;
46589;SDS011;32313;48.722;9.362;2023-06-14T13:50:13;3.50;;;2.72;;
46589;SDS011;32313;48.722;9.362;2023-06-14T13:52:39;5.10;;;2.80;;
46589;SDS011;32313;48.722;9.362;2023-06-14T13:55:05;3.40;;;2.70;;
46589;SDS011;32313;48.722;9.362;2023-06-14T13:57:31;5.07;;;3.50;;
46589;SDS011;32313;48.722;9.362;2023-06-14T13:59:57;3.65;;;3.30;;
46589;SDS011;32313;48.722;9.362;2023-06-14T14:02:26;5.20;;;3.35;;
46589;SDS011;32313;48.722;9.362;2023-06-14T14:04:54;4.07;;;3.60;;
46589;SDS011;32313;48.722;9.362;2023-06-14T14:07:20;4.68;;;3.70;;
46589;SDS011;32313;48.722;9.362;2023-06-14T14:09:47;3.60;;;3.30;;
46589;SDS011;32313;48.722;9.362;2023-06-14T14:12:13;5.25;;;3.33;;
46589;SDS011;32313;48.722;9.362;2023-06-14T14:14:42;6.05;;;3.85;;
46589;SDS011;32313;48.722;9.362;2023-06-14T14:17:07;5.47;;;3.95;;
46589;SDS011;32313;48.722;9.362;2023-06-14T14:19:33;6.30;;;3.25;;
46589;SDS011;32313;48.722;9.362;2023-06-14T14:21:59;8.95;;;3.55;;
46589;SDS011;32313;48.722;9.362;2023-06-14T14:24:26;4.18;;;3.53;;
46589;SDS011;32313;48.722;9.362;2023-06-14T14:26:52;5.25;;;3.40;;
46589;SDS011;32313;48.722;9.362;2023-06-14T14:29:19;3.35;;;3.05;;
46589;SDS011;32313;48.722;9.362;2023-06-14T14:31:45;3.78;;;3.47;;
46589;SDS011;32313;48.722;9.362;2023-06-14T14:34:11;4.75;;;3.10;;
46589;SDS011;32313;48.722;9.362;2023-06-14T14:36:37;4.72;;;3.53;;
46589;SDS011;32313;48.722;9.362;2023-06-14T14:39:07;3.22;;;2.90;;
46589;SDS011;32313;48.722;9.362;2023-06-14T14:41:33;3.78;;;3.28;;
46589;SDS011;32313;48.722;9.362;2023-06-14T14:43:59;3.85;;;3.25;;
46589;SDS011;32313;48.722;9.362;2023-06-14T14:46:26;4.60;;;3.25;;
46589;SDS011;32313;48.722;9.362;2023-06-14T14:48:53;3.22;;;3.03;;
46589;SDS011;32313;48.722;9.362;2023-06-14T14:51:19;4.95;;;2.92;;
46589;SDS011;32313;48.722;9.362;2023-06-14T14:53:45;3.50;;;2.92;;
46589;SDS011;32313;48.722;9.362;2023-06-14T14:56:10;3.00;;;2.70;;
46589;SDS011;32313;48.722;9.362;2023-06-14T14:58:37;3.33;;;2.78;;
46589;SDS011;32313;48.722;9.362;2023-06-14T15:01:03;4.15;;;3.20;;
46589;SDS011;32313;48.722;9.362;2023-06-14T15:03:30;4.97;;;2.65;;